<?xml version="1.0" encoding="utf-8"?>
<gpx xmlns:xsi="http://www.w3.org/2001/XMLSchema-instance" xmlns:xsd="http://www.w3.org/2001/XMLSchema" version="1.1" creator="Shapelink.com" xmlns="http://www.topografix.com/GPX/1/1" xmlns:gpxtpx="http://www.garmin.com/xmlschemas/TrackPointExtension/v1">
  <metadata>
    <name>Løping 5.49 km, 2012-04-07</name>
    <desc></desc>
    <author><name>Mikael Blom</name></author> 
    <time>2012-04-07T14:03:16Z</time>
  </metadata>
  <trk>
    <name>Løping 5.49 km, 2012-04-07</name>
    <trkseg>
      <trkpt lat="59.9611777" lon="17.7181108">
        <ele>39.5513</ele>
        <time>2012-04-07T14:03:16Z</time>
      </trkpt>
      <trkpt lat="59.961133" lon="17.7182566">
        <ele>42.4354</ele>
        <time>2012-04-07T14:03:21Z</time>
      </trkpt>
      <trkpt lat="59.9610814" lon="17.718465">
        <ele>44.8386</ele>
        <time>2012-04-07T14:03:28Z</time>
      </trkpt>
      <trkpt lat="59.9609886" lon="17.7185914">
        <ele>46.7612</ele>
        <time>2012-04-07T14:03:35Z</time>
      </trkpt>
      <trkpt lat="59.9609115" lon="17.7186126">
        <ele>46.2806</ele>
        <time>2012-04-07T14:03:40Z</time>
      </trkpt>
      <trkpt lat="59.9608703" lon="17.71865">
        <ele>46.7612</ele>
        <time>2012-04-07T14:03:43Z</time>
      </trkpt>
      <trkpt lat="59.9608164" lon="17.7187995">
        <ele>46.2806</ele>
        <time>2012-04-07T14:03:50Z</time>
      </trkpt>
      <trkpt lat="59.9607627" lon="17.7189663">
        <ele>46.7612</ele>
        <time>2012-04-07T14:03:55Z</time>
      </trkpt>
      <trkpt lat="59.9607507" lon="17.718994">
        <ele>46.2806</ele>
        <time>2012-04-07T14:03:56Z</time>
      </trkpt>
      <trkpt lat="59.9607071" lon="17.7191693">
        <ele>45.7999</ele>
        <time>2012-04-07T14:04:03Z</time>
      </trkpt>
      <trkpt lat="59.9606544" lon="17.7193394">
        <ele>45.3192</ele>
        <time>2012-04-07T14:04:09Z</time>
      </trkpt>
      <trkpt lat="59.960618" lon="17.7195021">
        <ele>46.7612</ele>
        <time>2012-04-07T14:04:15Z</time>
      </trkpt>
      <trkpt lat="59.9605701" lon="17.7196744">
        <ele>45.7999</ele>
        <time>2012-04-07T14:04:21Z</time>
      </trkpt>
      <trkpt lat="59.9605334" lon="17.7198469">
        <ele>45.7999</ele>
        <time>2012-04-07T14:04:27Z</time>
      </trkpt>
      <trkpt lat="59.960488" lon="17.7200451">
        <ele>46.2806</ele>
        <time>2012-04-07T14:04:34Z</time>
      </trkpt>
      <trkpt lat="59.9604659" lon="17.7202214">
        <ele>47.2418</ele>
        <time>2012-04-07T14:04:40Z</time>
      </trkpt>
      <trkpt lat="59.9604245" lon="17.7204113">
        <ele>46.7612</ele>
        <time>2012-04-07T14:04:47Z</time>
      </trkpt>
      <trkpt lat="59.9604212" lon="17.7204392">
        <ele>46.7612</ele>
        <time>2012-04-07T14:04:48Z</time>
      </trkpt>
      <trkpt lat="59.9604116" lon="17.7205577">
        <ele>48.2034</ele>
        <time>2012-04-07T14:04:52Z</time>
      </trkpt>
      <trkpt lat="59.9603851" lon="17.7208198">
        <ele>48.2034</ele>
        <time>2012-04-07T14:05:00Z</time>
      </trkpt>
      <trkpt lat="59.9603798" lon="17.7209454">
        <ele>48.684</ele>
        <time>2012-04-07T14:05:04Z</time>
      </trkpt>
      <trkpt lat="59.9603779" lon="17.7211023">
        <ele>49.1646</ele>
        <time>2012-04-07T14:05:08Z</time>
      </trkpt>
      <trkpt lat="59.9603665" lon="17.7211908">
        <ele>50.126</ele>
        <time>2012-04-07T14:05:11Z</time>
      </trkpt>
      <trkpt lat="59.9603357" lon="17.7213909">
        <ele>49.6453</ele>
        <time>2012-04-07T14:05:16Z</time>
      </trkpt>
      <trkpt lat="59.9603064" lon="17.721532">
        <ele>51.0872</ele>
        <time>2012-04-07T14:05:20Z</time>
      </trkpt>
      <trkpt lat="59.9602991" lon="17.7215643">
        <ele>51.5679</ele>
        <time>2012-04-07T14:05:21Z</time>
      </trkpt>
      <trkpt lat="59.9602379" lon="17.7218026">
        <ele>50.126</ele>
        <time>2012-04-07T14:05:29Z</time>
      </trkpt>
      <trkpt lat="59.9601799" lon="17.7219897">
        <ele>49.6453</ele>
        <time>2012-04-07T14:05:36Z</time>
      </trkpt>
      <trkpt lat="59.960126" lon="17.7222069">
        <ele>49.1646</ele>
        <time>2012-04-07T14:05:43Z</time>
      </trkpt>
      <trkpt lat="59.9600427" lon="17.7223485">
        <ele>48.2034</ele>
        <time>2012-04-07T14:05:50Z</time>
      </trkpt>
      <trkpt lat="59.9599444" lon="17.7223355">
        <ele>48.2034</ele>
        <time>2012-04-07T14:05:55Z</time>
      </trkpt>
      <trkpt lat="59.9598488" lon="17.7222735">
        <ele>46.2806</ele>
        <time>2012-04-07T14:06:01Z</time>
      </trkpt>
      <trkpt lat="59.959767" lon="17.722245">
        <ele>45.7999</ele>
        <time>2012-04-07T14:06:06Z</time>
      </trkpt>
      <trkpt lat="59.9597397" lon="17.7222222">
        <ele>45.3192</ele>
        <time>2012-04-07T14:06:08Z</time>
      </trkpt>
      <trkpt lat="59.9596416" lon="17.7221512">
        <ele>45.7999</ele>
        <time>2012-04-07T14:06:14Z</time>
      </trkpt>
      <trkpt lat="59.9595712" lon="17.7221087">
        <ele>46.7612</ele>
        <time>2012-04-07T14:06:19Z</time>
      </trkpt>
      <trkpt lat="59.9594979" lon="17.7220471">
        <ele>46.7612</ele>
        <time>2012-04-07T14:06:24Z</time>
      </trkpt>
      <trkpt lat="59.9594304" lon="17.7220025">
        <ele>46.7612</ele>
        <time>2012-04-07T14:06:29Z</time>
      </trkpt>
      <trkpt lat="59.9593656" lon="17.721955">
        <ele>46.7612</ele>
        <time>2012-04-07T14:06:33Z</time>
      </trkpt>
      <trkpt lat="59.9593002" lon="17.7218884">
        <ele>45.7999</ele>
        <time>2012-04-07T14:06:38Z</time>
      </trkpt>
      <trkpt lat="59.9592232" lon="17.721906">
        <ele>46.7612</ele>
        <time>2012-04-07T14:06:43Z</time>
      </trkpt>
      <trkpt lat="59.9592071" lon="17.7219651">
        <ele>47.2418</ele>
        <time>2012-04-07T14:06:45Z</time>
      </trkpt>
      <trkpt lat="59.9591812" lon="17.7220414">
        <ele>48.684</ele>
        <time>2012-04-07T14:06:49Z</time>
      </trkpt>
      <trkpt lat="59.9590752" lon="17.722191">
        <ele>50.126</ele>
        <time>2012-04-07T14:06:56Z</time>
      </trkpt>
      <trkpt lat="59.9590246" lon="17.7222397">
        <ele>50.6066</ele>
        <time>2012-04-07T14:06:59Z</time>
      </trkpt>
      <trkpt lat="59.9589602" lon="17.7221864">
        <ele>48.684</ele>
        <time>2012-04-07T14:07:03Z</time>
      </trkpt>
      <trkpt lat="59.9589013" lon="17.7220373">
        <ele>47.2418</ele>
        <time>2012-04-07T14:07:08Z</time>
      </trkpt>
      <trkpt lat="59.9588804" lon="17.7219137">
        <ele>45.7999</ele>
        <time>2012-04-07T14:07:12Z</time>
      </trkpt>
      <trkpt lat="59.9588714" lon="17.7218859">
        <ele>45.7999</ele>
        <time>2012-04-07T14:07:13Z</time>
      </trkpt>
      <trkpt lat="59.9588264" lon="17.7217767">
        <ele>45.7999</ele>
        <time>2012-04-07T14:07:17Z</time>
      </trkpt>
      <trkpt lat="59.9587799" lon="17.7216582">
        <ele>45.3192</ele>
        <time>2012-04-07T14:07:22Z</time>
      </trkpt>
      <trkpt lat="59.9587483" lon="17.7215343">
        <ele>43.8773</ele>
        <time>2012-04-07T14:07:26Z</time>
      </trkpt>
      <trkpt lat="59.9587295" lon="17.7214601">
        <ele>42.4354</ele>
        <time>2012-04-07T14:07:29Z</time>
      </trkpt>
      <trkpt lat="59.9586872" lon="17.7213844">
        <ele>40.5128</ele>
        <time>2012-04-07T14:07:33Z</time>
      </trkpt>
      <trkpt lat="59.9586273" lon="17.7213147">
        <ele>39.5513</ele>
        <time>2012-04-07T14:07:36Z</time>
      </trkpt>
      <trkpt lat="59.958598" lon="17.721272">
        <ele>38.5901</ele>
        <time>2012-04-07T14:07:38Z</time>
      </trkpt>
      <trkpt lat="59.9585125" lon="17.7211421">
        <ele>38.5901</ele>
        <time>2012-04-07T14:07:44Z</time>
      </trkpt>
      <trkpt lat="59.9584325" lon="17.7210016">
        <ele>39.0707</ele>
        <time>2012-04-07T14:07:50Z</time>
      </trkpt>
      <trkpt lat="59.9583743" lon="17.7208883">
        <ele>39.5513</ele>
        <time>2012-04-07T14:07:54Z</time>
      </trkpt>
      <trkpt lat="59.9582499" lon="17.7207053">
        <ele>40.0321</ele>
        <time>2012-04-07T14:08:03Z</time>
      </trkpt>
      <trkpt lat="59.9581452" lon="17.7205355">
        <ele>38.5901</ele>
        <time>2012-04-07T14:08:11Z</time>
      </trkpt>
      <trkpt lat="59.9580515" lon="17.7203466">
        <ele>38.5901</ele>
        <time>2012-04-07T14:08:20Z</time>
      </trkpt>
      <trkpt lat="59.9579711" lon="17.720174">
        <ele>40.0321</ele>
        <time>2012-04-07T14:08:27Z</time>
      </trkpt>
      <trkpt lat="59.9579152" lon="17.7200523">
        <ele>39.0707</ele>
        <time>2012-04-07T14:08:32Z</time>
      </trkpt>
      <trkpt lat="59.9578463" lon="17.7199222">
        <ele>39.5513</ele>
        <time>2012-04-07T14:08:38Z</time>
      </trkpt>
      <trkpt lat="59.9577277" lon="17.7197796">
        <ele>37.1481</ele>
        <time>2012-04-07T14:08:45Z</time>
      </trkpt>
      <trkpt lat="59.9576774" lon="17.7196646">
        <ele>37.1481</ele>
        <time>2012-04-07T14:08:49Z</time>
      </trkpt>
      <trkpt lat="59.9576308" lon="17.7195633">
        <ele>34.2642</ele>
        <time>2012-04-07T14:08:54Z</time>
      </trkpt>
      <trkpt lat="59.9575851" lon="17.7194102">
        <ele>32.3416</ele>
        <time>2012-04-07T14:09:00Z</time>
      </trkpt>
      <trkpt lat="59.9575276" lon="17.7192524">
        <ele>32.8223</ele>
        <time>2012-04-07T14:09:06Z</time>
      </trkpt>
      <trkpt lat="59.9575091" lon="17.7191534">
        <ele>32.8223</ele>
        <time>2012-04-07T14:09:09Z</time>
      </trkpt>
      <trkpt lat="59.9574566" lon="17.7190072">
        <ele>33.3029</ele>
        <time>2012-04-07T14:09:14Z</time>
      </trkpt>
      <trkpt lat="59.9574432" lon="17.7189891">
        <ele>33.3029</ele>
        <time>2012-04-07T14:09:15Z</time>
      </trkpt>
      <trkpt lat="59.9573858" lon="17.7188653">
        <ele>31.8607</ele>
        <time>2012-04-07T14:09:20Z</time>
      </trkpt>
      <trkpt lat="59.9573383" lon="17.7187686">
        <ele>31.3801</ele>
        <time>2012-04-07T14:09:24Z</time>
      </trkpt>
      <trkpt lat="59.9572891" lon="17.7186681">
        <ele>31.3801</ele>
        <time>2012-04-07T14:09:28Z</time>
      </trkpt>
      <trkpt lat="59.9572163" lon="17.7185351">
        <ele>31.3801</ele>
        <time>2012-04-07T14:09:34Z</time>
      </trkpt>
      <trkpt lat="59.9571424" lon="17.7184385">
        <ele>30.8995</ele>
        <time>2012-04-07T14:09:38Z</time>
      </trkpt>
      <trkpt lat="59.9571009" lon="17.7183924">
        <ele>31.3801</ele>
        <time>2012-04-07T14:09:40Z</time>
      </trkpt>
      <trkpt lat="59.9570326" lon="17.7182635">
        <ele>30.4188</ele>
        <time>2012-04-07T14:09:45Z</time>
      </trkpt>
      <trkpt lat="59.9570133" lon="17.7181641">
        <ele>30.4188</ele>
        <time>2012-04-07T14:09:48Z</time>
      </trkpt>
      <trkpt lat="59.95696" lon="17.7180842">
        <ele>30.4188</ele>
        <time>2012-04-07T14:09:52Z</time>
      </trkpt>
      <trkpt lat="59.9569166" lon="17.7179831">
        <ele>29.9381</ele>
        <time>2012-04-07T14:09:55Z</time>
      </trkpt>
      <trkpt lat="59.9568947" lon="17.7178375">
        <ele>29.9381</ele>
        <time>2012-04-07T14:09:59Z</time>
      </trkpt>
      <trkpt lat="59.9568865" lon="17.7176459">
        <ele>31.3801</ele>
        <time>2012-04-07T14:10:05Z</time>
      </trkpt>
      <trkpt lat="59.9568736" lon="17.7175167">
        <ele>31.8607</ele>
        <time>2012-04-07T14:10:09Z</time>
      </trkpt>
      <trkpt lat="59.9568409" lon="17.7174609">
        <ele>31.8607</ele>
        <time>2012-04-07T14:10:12Z</time>
      </trkpt>
      <trkpt lat="59.9567407" lon="17.717339">
        <ele>31.8607</ele>
        <time>2012-04-07T14:10:18Z</time>
      </trkpt>
      <trkpt lat="59.9567247" lon="17.7173146">
        <ele>31.8607</ele>
        <time>2012-04-07T14:10:19Z</time>
      </trkpt>
      <trkpt lat="59.9566685" lon="17.7172151">
        <ele>31.8607</ele>
        <time>2012-04-07T14:10:22Z</time>
      </trkpt>
      <trkpt lat="59.9566005" lon="17.7171218">
        <ele>30.8995</ele>
        <time>2012-04-07T14:10:26Z</time>
      </trkpt>
      <trkpt lat="59.956556" lon="17.717036">
        <ele>29.9381</ele>
        <time>2012-04-07T14:10:30Z</time>
      </trkpt>
      <trkpt lat="59.9565456" lon="17.7170025">
        <ele>28.9769</ele>
        <time>2012-04-07T14:10:32Z</time>
      </trkpt>
      <trkpt lat="59.9565069" lon="17.7169348">
        <ele>27.5349</ele>
        <time>2012-04-07T14:10:36Z</time>
      </trkpt>
      <trkpt lat="59.9564363" lon="17.7167982">
        <ele>23.6896</ele>
        <time>2012-04-07T14:10:43Z</time>
      </trkpt>
      <trkpt lat="59.9563876" lon="17.7166903">
        <ele>22.2476</ele>
        <time>2012-04-07T14:10:48Z</time>
      </trkpt>
      <trkpt lat="59.9563247" lon="17.7165847">
        <ele>22.2476</ele>
        <time>2012-04-07T14:10:54Z</time>
      </trkpt>
      <trkpt lat="59.9563118" lon="17.7164992">
        <ele>19.8444</ele>
        <time>2012-04-07T14:10:58Z</time>
      </trkpt>
      <trkpt lat="59.9562717" lon="17.716378">
        <ele>17.9218</ele>
        <time>2012-04-07T14:11:03Z</time>
      </trkpt>
      <trkpt lat="59.956237" lon="17.716306">
        <ele>16.9604</ele>
        <time>2012-04-07T14:11:06Z</time>
      </trkpt>
      <trkpt lat="59.95621" lon="17.7162283">
        <ele>15.5184</ele>
        <time>2012-04-07T14:11:08Z</time>
      </trkpt>
      <trkpt lat="59.9561437" lon="17.7160067">
        <ele>21.2864</ele>
        <time>2012-04-07T14:11:12Z</time>
      </trkpt>
      <trkpt lat="59.9560462" lon="17.7157315">
        <ele>28.4962</ele>
        <time>2012-04-07T14:11:17Z</time>
      </trkpt>
      <trkpt lat="59.9560233" lon="17.7156802">
        <ele>29.9381</ele>
        <time>2012-04-07T14:11:18Z</time>
      </trkpt>
      <trkpt lat="59.9559453" lon="17.7154637">
        <ele>34.2642</ele>
        <time>2012-04-07T14:11:22Z</time>
      </trkpt>
      <trkpt lat="59.955902" lon="17.7153497">
        <ele>35.7061</ele>
        <time>2012-04-07T14:11:25Z</time>
      </trkpt>
      <trkpt lat="59.9558463" lon="17.7152133">
        <ele>38.1094</ele>
        <time>2012-04-07T14:11:28Z</time>
      </trkpt>
      <trkpt lat="59.9557733" lon="17.7150113">
        <ele>40.5128</ele>
        <time>2012-04-07T14:11:32Z</time>
      </trkpt>
      <trkpt lat="59.9556954" lon="17.7148571">
        <ele>39.5513</ele>
        <time>2012-04-07T14:11:36Z</time>
      </trkpt>
      <trkpt lat="59.9556111" lon="17.7146479">
        <ele>38.5901</ele>
        <time>2012-04-07T14:11:41Z</time>
      </trkpt>
      <trkpt lat="59.9555812" lon="17.7144582">
        <ele>38.5901</ele>
        <time>2012-04-07T14:11:45Z</time>
      </trkpt>
      <trkpt lat="59.9555417" lon="17.7141905">
        <ele>38.5901</ele>
        <time>2012-04-07T14:11:50Z</time>
      </trkpt>
      <trkpt lat="59.9555297" lon="17.7140553">
        <ele>38.1094</ele>
        <time>2012-04-07T14:11:53Z</time>
      </trkpt>
      <trkpt lat="59.9555044" lon="17.7137972">
        <ele>38.1094</ele>
        <time>2012-04-07T14:11:58Z</time>
      </trkpt>
      <trkpt lat="59.9554479" lon="17.7136375">
        <ele>37.6287</ele>
        <time>2012-04-07T14:12:02Z</time>
      </trkpt>
      <trkpt lat="59.955349" lon="17.7135311">
        <ele>36.6675</ele>
        <time>2012-04-07T14:12:07Z</time>
      </trkpt>
      <trkpt lat="59.9552371" lon="17.7134615">
        <ele>36.6675</ele>
        <time>2012-04-07T14:12:11Z</time>
      </trkpt>
      <trkpt lat="59.9551478" lon="17.7133795">
        <ele>39.0707</ele>
        <time>2012-04-07T14:12:15Z</time>
      </trkpt>
      <trkpt lat="59.9551179" lon="17.713373">
        <ele>40.0321</ele>
        <time>2012-04-07T14:12:16Z</time>
      </trkpt>
      <trkpt lat="59.9549624" lon="17.7133347">
        <ele>42.4354</ele>
        <time>2012-04-07T14:12:21Z</time>
      </trkpt>
      <trkpt lat="59.9548715" lon="17.7133052">
        <ele>43.3966</ele>
        <time>2012-04-07T14:12:24Z</time>
      </trkpt>
      <trkpt lat="59.9547517" lon="17.7132215">
        <ele>44.358</ele>
        <time>2012-04-07T14:12:29Z</time>
      </trkpt>
      <trkpt lat="59.9546431" lon="17.7130876">
        <ele>44.358</ele>
        <time>2012-04-07T14:12:34Z</time>
      </trkpt>
      <trkpt lat="59.95463" lon="17.7130522">
        <ele>44.358</ele>
        <time>2012-04-07T14:12:35Z</time>
      </trkpt>
      <trkpt lat="59.9545013" lon="17.7128374">
        <ele>42.916</ele>
        <time>2012-04-07T14:12:42Z</time>
      </trkpt>
      <trkpt lat="59.9544725" lon="17.7127615">
        <ele>43.3966</ele>
        <time>2012-04-07T14:12:44Z</time>
      </trkpt>
      <trkpt lat="59.9544302" lon="17.7126038">
        <ele>44.358</ele>
        <time>2012-04-07T14:12:48Z</time>
      </trkpt>
      <trkpt lat="59.9543379" lon="17.7123394">
        <ele>46.7612</ele>
        <time>2012-04-07T14:12:55Z</time>
      </trkpt>
      <trkpt lat="59.9542843" lon="17.7122466">
        <ele>48.2034</ele>
        <time>2012-04-07T14:12:58Z</time>
      </trkpt>
      <trkpt lat="59.954152" lon="17.7122514">
        <ele>48.684</ele>
        <time>2012-04-07T14:13:05Z</time>
      </trkpt>
      <trkpt lat="59.9540727" lon="17.7123728">
        <ele>47.7225</ele>
        <time>2012-04-07T14:13:09Z</time>
      </trkpt>
      <trkpt lat="59.9539768" lon="17.7124788">
        <ele>46.7612</ele>
        <time>2012-04-07T14:13:14Z</time>
      </trkpt>
      <trkpt lat="59.9538965" lon="17.7124002">
        <ele>47.2418</ele>
        <time>2012-04-07T14:13:18Z</time>
      </trkpt>
      <trkpt lat="59.9538064" lon="17.7122827">
        <ele>48.684</ele>
        <time>2012-04-07T14:13:23Z</time>
      </trkpt>
      <trkpt lat="59.9537862" lon="17.7122557">
        <ele>48.684</ele>
        <time>2012-04-07T14:13:24Z</time>
      </trkpt>
      <trkpt lat="59.9536716" lon="17.7121179">
        <ele>51.0872</ele>
        <time>2012-04-07T14:13:30Z</time>
      </trkpt>
      <trkpt lat="59.9536141" lon="17.7120308">
        <ele>52.0486</ele>
        <time>2012-04-07T14:13:33Z</time>
      </trkpt>
      <trkpt lat="59.9535437" lon="17.7119317">
        <ele>51.0872</ele>
        <time>2012-04-07T14:13:37Z</time>
      </trkpt>
      <trkpt lat="59.9534635" lon="17.7118128">
        <ele>50.126</ele>
        <time>2012-04-07T14:13:41Z</time>
      </trkpt>
      <trkpt lat="59.953393" lon="17.7116398">
        <ele>49.6453</ele>
        <time>2012-04-07T14:13:46Z</time>
      </trkpt>
      <trkpt lat="59.9533042" lon="17.7114869">
        <ele>50.126</ele>
        <time>2012-04-07T14:13:51Z</time>
      </trkpt>
      <trkpt lat="59.9532141" lon="17.7113503">
        <ele>49.6453</ele>
        <time>2012-04-07T14:13:56Z</time>
      </trkpt>
      <trkpt lat="59.953121" lon="17.7111578">
        <ele>49.6453</ele>
        <time>2012-04-07T14:14:01Z</time>
      </trkpt>
      <trkpt lat="59.9530406" lon="17.7109776">
        <ele>49.1646</ele>
        <time>2012-04-07T14:14:06Z</time>
      </trkpt>
      <trkpt lat="59.9529572" lon="17.7107457">
        <ele>48.684</ele>
        <time>2012-04-07T14:14:12Z</time>
      </trkpt>
      <trkpt lat="59.9529245" lon="17.7106303">
        <ele>47.2418</ele>
        <time>2012-04-07T14:14:15Z</time>
      </trkpt>
      <trkpt lat="59.952863" lon="17.7104937">
        <ele>46.7612</ele>
        <time>2012-04-07T14:14:19Z</time>
      </trkpt>
      <trkpt lat="59.9527852" lon="17.7103525">
        <ele>46.2806</ele>
        <time>2012-04-07T14:14:23Z</time>
      </trkpt>
      <trkpt lat="59.9527215" lon="17.710264">
        <ele>46.2806</ele>
        <time>2012-04-07T14:14:26Z</time>
      </trkpt>
      <trkpt lat="59.9526756" lon="17.7102124">
        <ele>46.2806</ele>
        <time>2012-04-07T14:14:28Z</time>
      </trkpt>
      <trkpt lat="59.9525735" lon="17.7100665">
        <ele>46.2806</ele>
        <time>2012-04-07T14:14:33Z</time>
      </trkpt>
      <trkpt lat="59.9524524" lon="17.7099484">
        <ele>46.2806</ele>
        <time>2012-04-07T14:14:38Z</time>
      </trkpt>
      <trkpt lat="59.9523342" lon="17.7098519">
        <ele>47.2418</ele>
        <time>2012-04-07T14:14:43Z</time>
      </trkpt>
      <trkpt lat="59.952215" lon="17.7098133">
        <ele>47.7225</ele>
        <time>2012-04-07T14:14:48Z</time>
      </trkpt>
      <trkpt lat="59.9520401" lon="17.7098111">
        <ele>48.684</ele>
        <time>2012-04-07T14:14:54Z</time>
      </trkpt>
      <trkpt lat="59.9519668" lon="17.7097802">
        <ele>49.1646</ele>
        <time>2012-04-07T14:14:57Z</time>
      </trkpt>
      <trkpt lat="59.9518994" lon="17.7096748">
        <ele>49.6453</ele>
        <time>2012-04-07T14:15:01Z</time>
      </trkpt>
      <trkpt lat="59.9518726" lon="17.7096578">
        <ele>49.6453</ele>
        <time>2012-04-07T14:15:02Z</time>
      </trkpt>
      <trkpt lat="59.9517626" lon="17.7095338">
        <ele>50.6066</ele>
        <time>2012-04-07T14:15:07Z</time>
      </trkpt>
      <trkpt lat="59.9516458" lon="17.7094113">
        <ele>50.6066</ele>
        <time>2012-04-07T14:15:12Z</time>
      </trkpt>
      <trkpt lat="59.9516262" lon="17.7093771">
        <ele>51.0872</ele>
        <time>2012-04-07T14:15:13Z</time>
      </trkpt>
      <trkpt lat="59.9515362" lon="17.7092039">
        <ele>52.5292</ele>
        <time>2012-04-07T14:15:18Z</time>
      </trkpt>
      <trkpt lat="59.9514416" lon="17.7090316">
        <ele>53.0098</ele>
        <time>2012-04-07T14:15:23Z</time>
      </trkpt>
      <trkpt lat="59.9513358" lon="17.708872">
        <ele>52.0486</ele>
        <time>2012-04-07T14:15:28Z</time>
      </trkpt>
      <trkpt lat="59.9512493" lon="17.7088088">
        <ele>50.6066</ele>
        <time>2012-04-07T14:15:32Z</time>
      </trkpt>
      <trkpt lat="59.9511983" lon="17.7087874">
        <ele>50.126</ele>
        <time>2012-04-07T14:15:34Z</time>
      </trkpt>
      <trkpt lat="59.9510776" lon="17.70872">
        <ele>49.1646</ele>
        <time>2012-04-07T14:15:39Z</time>
      </trkpt>
      <trkpt lat="59.950983" lon="17.7086544">
        <ele>49.1646</ele>
        <time>2012-04-07T14:15:43Z</time>
      </trkpt>
      <trkpt lat="59.9509102" lon="17.7085348">
        <ele>49.1646</ele>
        <time>2012-04-07T14:15:47Z</time>
      </trkpt>
      <trkpt lat="59.9508248" lon="17.7084229">
        <ele>48.684</ele>
        <time>2012-04-07T14:15:51Z</time>
      </trkpt>
      <trkpt lat="59.9507071" lon="17.7082819">
        <ele>47.7225</ele>
        <time>2012-04-07T14:15:56Z</time>
      </trkpt>
      <trkpt lat="59.9506267" lon="17.7081474">
        <ele>48.2034</ele>
        <time>2012-04-07T14:16:00Z</time>
      </trkpt>
      <trkpt lat="59.9505128" lon="17.7080194">
        <ele>48.2034</ele>
        <time>2012-04-07T14:16:05Z</time>
      </trkpt>
      <trkpt lat="59.9504466" lon="17.7079037">
        <ele>48.684</ele>
        <time>2012-04-07T14:16:08Z</time>
      </trkpt>
      <trkpt lat="59.950359" lon="17.7077398">
        <ele>47.2418</ele>
        <time>2012-04-07T14:16:13Z</time>
      </trkpt>
      <trkpt lat="59.9502951" lon="17.7075581">
        <ele>50.126</ele>
        <time>2012-04-07T14:16:18Z</time>
      </trkpt>
      <trkpt lat="59.9502549" lon="17.7074262">
        <ele>49.6453</ele>
        <time>2012-04-07T14:16:22Z</time>
      </trkpt>
      <trkpt lat="59.9502159" lon="17.7073329">
        <ele>49.6453</ele>
        <time>2012-04-07T14:16:26Z</time>
      </trkpt>
      <trkpt lat="59.9501534" lon="17.7073124">
        <ele>48.2034</ele>
        <time>2012-04-07T14:16:29Z</time>
      </trkpt>
      <trkpt lat="59.9500642" lon="17.707291">
        <ele>46.7612</ele>
        <time>2012-04-07T14:16:33Z</time>
      </trkpt>
      <trkpt lat="59.9500144" lon="17.7073738">
        <ele>46.2806</ele>
        <time>2012-04-07T14:16:37Z</time>
      </trkpt>
      <trkpt lat="59.9500055" lon="17.7074195">
        <ele>46.2806</ele>
        <time>2012-04-07T14:16:38Z</time>
      </trkpt>
      <trkpt lat="59.9499741" lon="17.7076291">
        <ele>46.7612</ele>
        <time>2012-04-07T14:16:42Z</time>
      </trkpt>
      <trkpt lat="59.9498907" lon="17.7078525">
        <ele>48.2034</ele>
        <time>2012-04-07T14:16:47Z</time>
      </trkpt>
      <trkpt lat="59.9498716" lon="17.7079088">
        <ele>48.684</ele>
        <time>2012-04-07T14:16:48Z</time>
      </trkpt>
      <trkpt lat="59.9498333" lon="17.7080125">
        <ele>48.2034</ele>
        <time>2012-04-07T14:16:52Z</time>
      </trkpt>
      <trkpt lat="59.9498239" lon="17.708144">
        <ele>48.2034</ele>
        <time>2012-04-07T14:16:58Z</time>
      </trkpt>
      <trkpt lat="59.9498239" lon="17.7081649">
        <ele>47.7225</ele>
        <time>2012-04-07T14:17:00Z</time>
      </trkpt>
      <trkpt lat="59.9498332" lon="17.708231">
        <ele>46.7612</ele>
        <time>2012-04-07T14:17:04Z</time>
      </trkpt>
      <trkpt lat="59.9498285" lon="17.7083238">
        <ele>46.7612</ele>
        <time>2012-04-07T14:17:08Z</time>
      </trkpt>
      <trkpt lat="59.9498253" lon="17.7083968">
        <ele>45.7999</ele>
        <time>2012-04-07T14:17:11Z</time>
      </trkpt>
      <trkpt lat="59.9497902" lon="17.7085335">
        <ele>44.8386</ele>
        <time>2012-04-07T14:17:16Z</time>
      </trkpt>
      <trkpt lat="59.9497515" lon="17.7086273">
        <ele>44.8386</ele>
        <time>2012-04-07T14:17:21Z</time>
      </trkpt>
      <trkpt lat="59.9497528" lon="17.7086487">
        <ele>44.8386</ele>
        <time>2012-04-07T14:17:22Z</time>
      </trkpt>
      <trkpt lat="59.9497286" lon="17.7087601">
        <ele>45.3192</ele>
        <time>2012-04-07T14:17:28Z</time>
      </trkpt>
      <trkpt lat="59.9497141" lon="17.7088073">
        <ele>45.7999</ele>
        <time>2012-04-07T14:17:30Z</time>
      </trkpt>
      <trkpt lat="59.949686" lon="17.7089047">
        <ele>46.7612</ele>
        <time>2012-04-07T14:17:34Z</time>
      </trkpt>
      <trkpt lat="59.9496631" lon="17.7089993">
        <ele>47.7225</ele>
        <time>2012-04-07T14:17:38Z</time>
      </trkpt>
      <trkpt lat="59.9496302" lon="17.7091435">
        <ele>48.2034</ele>
        <time>2012-04-07T14:17:44Z</time>
      </trkpt>
      <trkpt lat="59.949596" lon="17.709229">
        <ele>47.2418</ele>
        <time>2012-04-07T14:17:48Z</time>
      </trkpt>
      <trkpt lat="59.9495691" lon="17.7092891">
        <ele>46.7612</ele>
        <time>2012-04-07T14:17:51Z</time>
      </trkpt>
      <trkpt lat="59.9495265" lon="17.7093744">
        <ele>46.2806</ele>
        <time>2012-04-07T14:17:55Z</time>
      </trkpt>
      <trkpt lat="59.949496" lon="17.7095065">
        <ele>47.2418</ele>
        <time>2012-04-07T14:18:01Z</time>
      </trkpt>
      <trkpt lat="59.9494918" lon="17.7095324">
        <ele>47.2418</ele>
        <time>2012-04-07T14:18:02Z</time>
      </trkpt>
      <trkpt lat="59.9494837" lon="17.7096117">
        <ele>47.7225</ele>
        <time>2012-04-07T14:18:05Z</time>
      </trkpt>
      <trkpt lat="59.9494401" lon="17.7097398">
        <ele>49.1646</ele>
        <time>2012-04-07T14:18:11Z</time>
      </trkpt>
      <trkpt lat="59.9494163" lon="17.7097955">
        <ele>49.6453</ele>
        <time>2012-04-07T14:18:14Z</time>
      </trkpt>
      <trkpt lat="59.9493649" lon="17.7099448">
        <ele>50.126</ele>
        <time>2012-04-07T14:18:21Z</time>
      </trkpt>
      <trkpt lat="59.9493308" lon="17.7100273">
        <ele>50.126</ele>
        <time>2012-04-07T14:18:25Z</time>
      </trkpt>
      <trkpt lat="59.9492655" lon="17.7101655">
        <ele>52.5292</ele>
        <time>2012-04-07T14:18:32Z</time>
      </trkpt>
      <trkpt lat="59.9492142" lon="17.7102779">
        <ele>54.4518</ele>
        <time>2012-04-07T14:18:37Z</time>
      </trkpt>
      <trkpt lat="59.9490987" lon="17.7104271">
        <ele>56.3745</ele>
        <time>2012-04-07T14:18:42Z</time>
      </trkpt>
      <trkpt lat="59.9490013" lon="17.7105923">
        <ele>57.3358</ele>
        <time>2012-04-07T14:18:46Z</time>
      </trkpt>
      <trkpt lat="59.9488848" lon="17.7107242">
        <ele>57.3358</ele>
        <time>2012-04-07T14:18:50Z</time>
      </trkpt>
      <trkpt lat="59.9488138" lon="17.7108502">
        <ele>56.8551</ele>
        <time>2012-04-07T14:18:53Z</time>
      </trkpt>
      <trkpt lat="59.9487476" lon="17.7109441">
        <ele>55.4131</ele>
        <time>2012-04-07T14:18:56Z</time>
      </trkpt>
      <trkpt lat="59.9486476" lon="17.7110195">
        <ele>53.9712</ele>
        <time>2012-04-07T14:19:01Z</time>
      </trkpt>
      <trkpt lat="59.9486096" lon="17.7111635">
        <ele>52.0486</ele>
        <time>2012-04-07T14:19:04Z</time>
      </trkpt>
      <trkpt lat="59.948577" lon="17.7113243">
        <ele>49.6453</ele>
        <time>2012-04-07T14:19:08Z</time>
      </trkpt>
      <trkpt lat="59.9485367" lon="17.7115538">
        <ele>46.7612</ele>
        <time>2012-04-07T14:19:13Z</time>
      </trkpt>
      <trkpt lat="59.9485325" lon="17.7117361">
        <ele>46.7612</ele>
        <time>2012-04-07T14:19:17Z</time>
      </trkpt>
      <trkpt lat="59.9485106" lon="17.7119283">
        <ele>47.2418</ele>
        <time>2012-04-07T14:19:21Z</time>
      </trkpt>
      <trkpt lat="59.9484833" lon="17.712165">
        <ele>48.2034</ele>
        <time>2012-04-07T14:19:26Z</time>
      </trkpt>
      <trkpt lat="59.9484324" lon="17.7123919">
        <ele>49.1646</ele>
        <time>2012-04-07T14:19:31Z</time>
      </trkpt>
      <trkpt lat="59.948348" lon="17.7124928">
        <ele>49.6453</ele>
        <time>2012-04-07T14:19:35Z</time>
      </trkpt>
      <trkpt lat="59.9482227" lon="17.7125685">
        <ele>49.1646</ele>
        <time>2012-04-07T14:19:40Z</time>
      </trkpt>
      <trkpt lat="59.9481249" lon="17.7126716">
        <ele>49.6453</ele>
        <time>2012-04-07T14:19:45Z</time>
      </trkpt>
      <trkpt lat="59.948057" lon="17.7127778">
        <ele>50.126</ele>
        <time>2012-04-07T14:19:49Z</time>
      </trkpt>
      <trkpt lat="59.9480118" lon="17.712871">
        <ele>50.6066</ele>
        <time>2012-04-07T14:19:52Z</time>
      </trkpt>
      <trkpt lat="59.9479653" lon="17.713231">
        <ele>50.126</ele>
        <time>2012-04-07T14:19:59Z</time>
      </trkpt>
      <trkpt lat="59.9479653" lon="17.7134531">
        <ele>51.0872</ele>
        <time>2012-04-07T14:20:04Z</time>
      </trkpt>
      <trkpt lat="59.9479882" lon="17.7136465">
        <ele>50.6066</ele>
        <time>2012-04-07T14:20:08Z</time>
      </trkpt>
      <trkpt lat="59.9480378" lon="17.7138256">
        <ele>49.6453</ele>
        <time>2012-04-07T14:20:13Z</time>
      </trkpt>
      <trkpt lat="59.9480667" lon="17.7139017">
        <ele>49.6453</ele>
        <time>2012-04-07T14:20:15Z</time>
      </trkpt>
      <trkpt lat="59.9481485" lon="17.7140366">
        <ele>49.6453</ele>
        <time>2012-04-07T14:20:19Z</time>
      </trkpt>
      <trkpt lat="59.9482448" lon="17.7141189">
        <ele>49.1646</ele>
        <time>2012-04-07T14:20:24Z</time>
      </trkpt>
      <trkpt lat="59.9483206" lon="17.7139827">
        <ele>49.6453</ele>
        <time>2012-04-07T14:20:28Z</time>
      </trkpt>
      <trkpt lat="59.9484005" lon="17.7138474">
        <ele>50.6066</ele>
        <time>2012-04-07T14:20:32Z</time>
      </trkpt>
      <trkpt lat="59.9484209" lon="17.7138283">
        <ele>51.0872</ele>
        <time>2012-04-07T14:20:33Z</time>
      </trkpt>
      <trkpt lat="59.9485248" lon="17.7137574">
        <ele>51.5679</ele>
        <time>2012-04-07T14:20:38Z</time>
      </trkpt>
      <trkpt lat="59.9486307" lon="17.7137966">
        <ele>51.5679</ele>
        <time>2012-04-07T14:20:42Z</time>
      </trkpt>
      <trkpt lat="59.9487856" lon="17.7139334">
        <ele>49.1646</ele>
        <time>2012-04-07T14:20:49Z</time>
      </trkpt>
      <trkpt lat="59.9488764" lon="17.7140111">
        <ele>48.2034</ele>
        <time>2012-04-07T14:20:53Z</time>
      </trkpt>
      <trkpt lat="59.9489863" lon="17.7141194">
        <ele>47.7225</ele>
        <time>2012-04-07T14:20:58Z</time>
      </trkpt>
      <trkpt lat="59.9490868" lon="17.7142384">
        <ele>48.684</ele>
        <time>2012-04-07T14:21:03Z</time>
      </trkpt>
      <trkpt lat="59.9491044" lon="17.7142769">
        <ele>48.684</ele>
        <time>2012-04-07T14:21:04Z</time>
      </trkpt>
      <trkpt lat="59.9491296" lon="17.7145598">
        <ele>49.1646</ele>
        <time>2012-04-07T14:21:10Z</time>
      </trkpt>
      <trkpt lat="59.9491189" lon="17.7147678">
        <ele>50.6066</ele>
        <time>2012-04-07T14:21:14Z</time>
      </trkpt>
      <trkpt lat="59.949103" lon="17.7148679">
        <ele>50.6066</ele>
        <time>2012-04-07T14:21:16Z</time>
      </trkpt>
      <trkpt lat="59.9490951" lon="17.7149825">
        <ele>49.6453</ele>
        <time>2012-04-07T14:21:19Z</time>
      </trkpt>
      <trkpt lat="59.9491831" lon="17.7151829">
        <ele>50.6066</ele>
        <time>2012-04-07T14:21:25Z</time>
      </trkpt>
      <trkpt lat="59.9492682" lon="17.7152775">
        <ele>52.5292</ele>
        <time>2012-04-07T14:21:30Z</time>
      </trkpt>
      <trkpt lat="59.9493915" lon="17.7152233">
        <ele>53.9712</ele>
        <time>2012-04-07T14:21:35Z</time>
      </trkpt>
      <trkpt lat="59.9494552" lon="17.7151477">
        <ele>52.5292</ele>
        <time>2012-04-07T14:21:38Z</time>
      </trkpt>
      <trkpt lat="59.949467" lon="17.7151146">
        <ele>51.5679</ele>
        <time>2012-04-07T14:21:39Z</time>
      </trkpt>
      <trkpt lat="59.9495078" lon="17.7149835">
        <ele>50.126</ele>
        <time>2012-04-07T14:21:44Z</time>
      </trkpt>
      <trkpt lat="59.9495269" lon="17.7149004">
        <ele>49.1646</ele>
        <time>2012-04-07T14:21:47Z</time>
      </trkpt>
      <trkpt lat="59.9495588" lon="17.7147279">
        <ele>47.2418</ele>
        <time>2012-04-07T14:21:54Z</time>
      </trkpt>
      <trkpt lat="59.9495639" lon="17.7146732">
        <ele>46.2806</ele>
        <time>2012-04-07T14:21:56Z</time>
      </trkpt>
      <trkpt lat="59.9494985" lon="17.7145661">
        <ele>43.3966</ele>
        <time>2012-04-07T14:22:02Z</time>
      </trkpt>
      <trkpt lat="59.9494706" lon="17.7145498">
        <ele>43.8773</ele>
        <time>2012-04-07T14:22:04Z</time>
      </trkpt>
      <trkpt lat="59.9493879" lon="17.714453">
        <ele>43.3966</ele>
        <time>2012-04-07T14:22:11Z</time>
      </trkpt>
      <trkpt lat="59.9493482" lon="17.7143939">
        <ele>42.4354</ele>
        <time>2012-04-07T14:22:14Z</time>
      </trkpt>
      <trkpt lat="59.9493163" lon="17.7143085">
        <ele>41.474</ele>
        <time>2012-04-07T14:22:18Z</time>
      </trkpt>
      <trkpt lat="59.9492582" lon="17.7142135">
        <ele>41.9547</ele>
        <time>2012-04-07T14:22:23Z</time>
      </trkpt>
      <trkpt lat="59.9492411" lon="17.7142107">
        <ele>42.4354</ele>
        <time>2012-04-07T14:22:24Z</time>
      </trkpt>
      <trkpt lat="59.9492132" lon="17.7141935">
        <ele>42.916</ele>
        <time>2012-04-07T14:22:26Z</time>
      </trkpt>
      <trkpt lat="59.9491302" lon="17.7141396">
        <ele>43.3966</ele>
        <time>2012-04-07T14:22:32Z</time>
      </trkpt>
      <trkpt lat="59.949098" lon="17.7141324">
        <ele>43.3966</ele>
        <time>2012-04-07T14:22:34Z</time>
      </trkpt>
      <trkpt lat="59.9490385" lon="17.7140428">
        <ele>43.3966</ele>
        <time>2012-04-07T14:22:39Z</time>
      </trkpt>
      <trkpt lat="59.9490091" lon="17.7140014">
        <ele>43.8773</ele>
        <time>2012-04-07T14:22:41Z</time>
      </trkpt>
      <trkpt lat="59.948963" lon="17.7138839">
        <ele>42.916</ele>
        <time>2012-04-07T14:22:46Z</time>
      </trkpt>
      <trkpt lat="59.948923" lon="17.713854">
        <ele>41.9547</ele>
        <time>2012-04-07T14:22:49Z</time>
      </trkpt>
      <trkpt lat="59.9488832" lon="17.7138035">
        <ele>41.474</ele>
        <time>2012-04-07T14:22:52Z</time>
      </trkpt>
      <trkpt lat="59.9488411" lon="17.7137613">
        <ele>41.474</ele>
        <time>2012-04-07T14:22:55Z</time>
      </trkpt>
      <trkpt lat="59.9488164" lon="17.7136687">
        <ele>40.9934</ele>
        <time>2012-04-07T14:22:59Z</time>
      </trkpt>
      <trkpt lat="59.9488086" lon="17.7135657">
        <ele>41.9547</ele>
        <time>2012-04-07T14:23:03Z</time>
      </trkpt>
      <trkpt lat="59.9488024" lon="17.7134638">
        <ele>41.9547</ele>
        <time>2012-04-07T14:23:06Z</time>
      </trkpt>
      <trkpt lat="59.9488343" lon="17.7132927">
        <ele>41.9547</ele>
        <time>2012-04-07T14:23:13Z</time>
      </trkpt>
      <trkpt lat="59.94889" lon="17.7131335">
        <ele>46.2806</ele>
        <time>2012-04-07T14:23:20Z</time>
      </trkpt>
      <trkpt lat="59.9489231" lon="17.7130705">
        <ele>48.2034</ele>
        <time>2012-04-07T14:23:24Z</time>
      </trkpt>
      <trkpt lat="59.9489903" lon="17.7130135">
        <ele>49.6453</ele>
        <time>2012-04-07T14:23:30Z</time>
      </trkpt>
      <trkpt lat="59.9490545" lon="17.7129606">
        <ele>51.5679</ele>
        <time>2012-04-07T14:23:36Z</time>
      </trkpt>
      <trkpt lat="59.9491394" lon="17.7128923">
        <ele>52.0486</ele>
        <time>2012-04-07T14:23:43Z</time>
      </trkpt>
      <trkpt lat="59.9492049" lon="17.7127725">
        <ele>51.0872</ele>
        <time>2012-04-07T14:23:50Z</time>
      </trkpt>
      <trkpt lat="59.9492161" lon="17.7127507">
        <ele>51.0872</ele>
        <time>2012-04-07T14:23:51Z</time>
      </trkpt>
      <trkpt lat="59.9492644" lon="17.712638">
        <ele>49.6453</ele>
        <time>2012-04-07T14:23:56Z</time>
      </trkpt>
      <trkpt lat="59.949319" lon="17.7124489">
        <ele>48.2034</ele>
        <time>2012-04-07T14:24:03Z</time>
      </trkpt>
      <trkpt lat="59.9493276" lon="17.7124233">
        <ele>48.2034</ele>
        <time>2012-04-07T14:24:04Z</time>
      </trkpt>
      <trkpt lat="59.9493561" lon="17.7122036">
        <ele>47.7225</ele>
        <time>2012-04-07T14:24:09Z</time>
      </trkpt>
      <trkpt lat="59.9493578" lon="17.7121461">
        <ele>46.7612</ele>
        <time>2012-04-07T14:24:10Z</time>
      </trkpt>
      <trkpt lat="59.9493727" lon="17.711922">
        <ele>47.2418</ele>
        <time>2012-04-07T14:24:15Z</time>
      </trkpt>
      <trkpt lat="59.9493863" lon="17.7118019">
        <ele>47.7225</ele>
        <time>2012-04-07T14:24:18Z</time>
      </trkpt>
      <trkpt lat="59.9493842" lon="17.7116537">
        <ele>49.1646</ele>
        <time>2012-04-07T14:24:21Z</time>
      </trkpt>
      <trkpt lat="59.9493743" lon="17.7115485">
        <ele>49.6453</ele>
        <time>2012-04-07T14:24:23Z</time>
      </trkpt>
      <trkpt lat="59.9493813" lon="17.7115119">
        <ele>50.126</ele>
        <time>2012-04-07T14:24:24Z</time>
      </trkpt>
      <trkpt lat="59.949396" lon="17.711431">
        <ele>51.0872</ele>
        <time>2012-04-07T14:24:26Z</time>
      </trkpt>
      <trkpt lat="59.9493976" lon="17.7113018">
        <ele>52.0486</ele>
        <time>2012-04-07T14:24:29Z</time>
      </trkpt>
      <trkpt lat="59.9493485" lon="17.7109776">
        <ele>54.4518</ele>
        <time>2012-04-07T14:24:35Z</time>
      </trkpt>
      <trkpt lat="59.9493494" lon="17.7108073">
        <ele>54.9324</ele>
        <time>2012-04-07T14:24:39Z</time>
      </trkpt>
      <trkpt lat="59.9493809" lon="17.710625">
        <ele>53.9712</ele>
        <time>2012-04-07T14:24:43Z</time>
      </trkpt>
      <trkpt lat="59.9494327" lon="17.7105203">
        <ele>57.3358</ele>
        <time>2012-04-07T14:24:48Z</time>
      </trkpt>
      <trkpt lat="59.949472" lon="17.7104493">
        <ele>59.2584</ele>
        <time>2012-04-07T14:24:51Z</time>
      </trkpt>
      <trkpt lat="59.9494868" lon="17.7104262">
        <ele>59.7391</ele>
        <time>2012-04-07T14:24:52Z</time>
      </trkpt>
      <trkpt lat="59.9495183" lon="17.7103561">
        <ele>61.181</ele>
        <time>2012-04-07T14:24:56Z</time>
      </trkpt>
      <trkpt lat="59.9495707" lon="17.7102964">
        <ele>63.1036</ele>
        <time>2012-04-07T14:25:03Z</time>
      </trkpt>
      <trkpt lat="59.9496095" lon="17.7103209">
        <ele>63.5844</ele>
        <time>2012-04-07T14:25:07Z</time>
      </trkpt>
      <trkpt lat="59.9496317" lon="17.7103665">
        <ele>62.1423</ele>
        <time>2012-04-07T14:25:10Z</time>
      </trkpt>
      <trkpt lat="59.9496403" lon="17.710422">
        <ele>61.181</ele>
        <time>2012-04-07T14:25:12Z</time>
      </trkpt>
      <trkpt lat="59.9496747" lon="17.7104757">
        <ele>60.2197</ele>
        <time>2012-04-07T14:25:16Z</time>
      </trkpt>
      <trkpt lat="59.9497224" lon="17.7105696">
        <ele>58.7777</ele>
        <time>2012-04-07T14:25:22Z</time>
      </trkpt>
      <trkpt lat="59.9497462" lon="17.7106431">
        <ele>58.2971</ele>
        <time>2012-04-07T14:25:26Z</time>
      </trkpt>
      <trkpt lat="59.9497825" lon="17.7107445">
        <ele>57.3358</ele>
        <time>2012-04-07T14:25:31Z</time>
      </trkpt>
      <trkpt lat="59.9498073" lon="17.7107924">
        <ele>56.8551</ele>
        <time>2012-04-07T14:25:33Z</time>
      </trkpt>
      <trkpt lat="59.9498622" lon="17.7108064">
        <ele>55.4131</ele>
        <time>2012-04-07T14:25:40Z</time>
      </trkpt>
      <trkpt lat="59.9498817" lon="17.7107725">
        <ele>55.8938</ele>
        <time>2012-04-07T14:25:44Z</time>
      </trkpt>
      <trkpt lat="59.9499088" lon="17.7107643">
        <ele>55.8938</ele>
        <time>2012-04-07T14:25:48Z</time>
      </trkpt>
      <trkpt lat="59.9499813" lon="17.7107343">
        <ele>53.9712</ele>
        <time>2012-04-07T14:25:55Z</time>
      </trkpt>
      <trkpt lat="59.9500359" lon="17.7107144">
        <ele>52.5292</ele>
        <time>2012-04-07T14:26:00Z</time>
      </trkpt>
      <trkpt lat="59.9500796" lon="17.7107432">
        <ele>51.0872</ele>
        <time>2012-04-07T14:26:04Z</time>
      </trkpt>
      <trkpt lat="59.9501112" lon="17.7107735">
        <ele>50.126</ele>
        <time>2012-04-07T14:26:06Z</time>
      </trkpt>
      <trkpt lat="59.95016" lon="17.7108384">
        <ele>46.7612</ele>
        <time>2012-04-07T14:26:11Z</time>
      </trkpt>
      <trkpt lat="59.9501824" lon="17.7109027">
        <ele>45.7999</ele>
        <time>2012-04-07T14:26:14Z</time>
      </trkpt>
      <trkpt lat="59.9501927" lon="17.7110201">
        <ele>43.8773</ele>
        <time>2012-04-07T14:26:18Z</time>
      </trkpt>
      <trkpt lat="59.9501803" lon="17.7110632">
        <ele>43.3966</ele>
        <time>2012-04-07T14:26:20Z</time>
      </trkpt>
      <trkpt lat="59.9502146" lon="17.7111211">
        <ele>42.916</ele>
        <time>2012-04-07T14:26:25Z</time>
      </trkpt>
      <trkpt lat="59.9502542" lon="17.7112471">
        <ele>41.9547</ele>
        <time>2012-04-07T14:26:30Z</time>
      </trkpt>
      <trkpt lat="59.9502913" lon="17.7113063">
        <ele>43.3966</ele>
        <time>2012-04-07T14:26:34Z</time>
      </trkpt>
      <trkpt lat="59.9503497" lon="17.71137">
        <ele>44.358</ele>
        <time>2012-04-07T14:26:39Z</time>
      </trkpt>
      <trkpt lat="59.950372" lon="17.7114356">
        <ele>44.8386</ele>
        <time>2012-04-07T14:26:42Z</time>
      </trkpt>
      <trkpt lat="59.9504341" lon="17.711552">
        <ele>45.7999</ele>
        <time>2012-04-07T14:26:49Z</time>
      </trkpt>
      <trkpt lat="59.9504782" lon="17.7115931">
        <ele>46.2806</ele>
        <time>2012-04-07T14:26:54Z</time>
      </trkpt>
      <trkpt lat="59.9504957" lon="17.711559">
        <ele>44.8386</ele>
        <time>2012-04-07T14:26:56Z</time>
      </trkpt>
      <trkpt lat="59.9505306" lon="17.7114761">
        <ele>43.8773</ele>
        <time>2012-04-07T14:27:01Z</time>
      </trkpt>
      <trkpt lat="59.9505803" lon="17.71137">
        <ele>43.3966</ele>
        <time>2012-04-07T14:27:07Z</time>
      </trkpt>
      <trkpt lat="59.9505884" lon="17.7113222">
        <ele>42.916</ele>
        <time>2012-04-07T14:27:09Z</time>
      </trkpt>
      <trkpt lat="59.9505184" lon="17.7111978">
        <ele>41.9547</ele>
        <time>2012-04-07T14:27:14Z</time>
      </trkpt>
      <trkpt lat="59.9504734" lon="17.7111316">
        <ele>42.4354</ele>
        <time>2012-04-07T14:27:16Z</time>
      </trkpt>
      <trkpt lat="59.9504116" lon="17.710944">
        <ele>44.358</ele>
        <time>2012-04-07T14:27:20Z</time>
      </trkpt>
      <trkpt lat="59.9503625" lon="17.710843">
        <ele>44.358</ele>
        <time>2012-04-07T14:27:23Z</time>
      </trkpt>
      <trkpt lat="59.9503026" lon="17.7107229">
        <ele>46.2806</ele>
        <time>2012-04-07T14:27:27Z</time>
      </trkpt>
      <trkpt lat="59.950217" lon="17.7106653">
        <ele>48.2034</ele>
        <time>2012-04-07T14:27:31Z</time>
      </trkpt>
      <trkpt lat="59.9501775" lon="17.7106219">
        <ele>48.684</ele>
        <time>2012-04-07T14:27:33Z</time>
      </trkpt>
      <trkpt lat="59.9501333" lon="17.7105424">
        <ele>49.6453</ele>
        <time>2012-04-07T14:27:36Z</time>
      </trkpt>
      <trkpt lat="59.9500693" lon="17.7104566">
        <ele>50.6066</ele>
        <time>2012-04-07T14:27:40Z</time>
      </trkpt>
      <trkpt lat="59.9500092" lon="17.710354">
        <ele>51.5679</ele>
        <time>2012-04-07T14:27:44Z</time>
      </trkpt>
      <trkpt lat="59.9499404" lon="17.710248">
        <ele>51.5679</ele>
        <time>2012-04-07T14:27:49Z</time>
      </trkpt>
      <trkpt lat="59.9498866" lon="17.7101436">
        <ele>52.5292</ele>
        <time>2012-04-07T14:27:53Z</time>
      </trkpt>
      <trkpt lat="59.949858" lon="17.7100955">
        <ele>53.0098</ele>
        <time>2012-04-07T14:27:55Z</time>
      </trkpt>
      <trkpt lat="59.9497851" lon="17.7099811">
        <ele>55.4131</ele>
        <time>2012-04-07T14:28:00Z</time>
      </trkpt>
      <trkpt lat="59.9497211" lon="17.7099401">
        <ele>56.3745</ele>
        <time>2012-04-07T14:28:05Z</time>
      </trkpt>
      <trkpt lat="59.9496838" lon="17.7098578">
        <ele>56.8551</ele>
        <time>2012-04-07T14:28:09Z</time>
      </trkpt>
      <trkpt lat="59.9496747" lon="17.7098452">
        <ele>56.8551</ele>
        <time>2012-04-07T14:28:10Z</time>
      </trkpt>
      <trkpt lat="59.9496846" lon="17.7097899">
        <ele>58.2971</ele>
        <time>2012-04-07T14:28:15Z</time>
      </trkpt>
      <trkpt lat="59.9496987" lon="17.7097231">
        <ele>58.7777</ele>
        <time>2012-04-07T14:28:19Z</time>
      </trkpt>
      <trkpt lat="59.9497196" lon="17.7096273">
        <ele>59.2584</ele>
        <time>2012-04-07T14:28:23Z</time>
      </trkpt>
      <trkpt lat="59.949738" lon="17.7095526">
        <ele>59.7391</ele>
        <time>2012-04-07T14:28:27Z</time>
      </trkpt>
      <trkpt lat="59.9497711" lon="17.7094786">
        <ele>58.2971</ele>
        <time>2012-04-07T14:28:32Z</time>
      </trkpt>
      <trkpt lat="59.949802" lon="17.7094118">
        <ele>58.7777</ele>
        <time>2012-04-07T14:28:36Z</time>
      </trkpt>
      <trkpt lat="59.9498275" lon="17.70929">
        <ele>58.7777</ele>
        <time>2012-04-07T14:28:41Z</time>
      </trkpt>
      <trkpt lat="59.9498654" lon="17.709179">
        <ele>60.2197</ele>
        <time>2012-04-07T14:28:47Z</time>
      </trkpt>
      <trkpt lat="59.9499077" lon="17.7090099">
        <ele>61.181</ele>
        <time>2012-04-07T14:28:54Z</time>
      </trkpt>
      <trkpt lat="59.9499634" lon="17.7088462">
        <ele>61.6617</ele>
        <time>2012-04-07T14:29:01Z</time>
      </trkpt>
      <trkpt lat="59.9499897" lon="17.7087036">
        <ele>62.1423</ele>
        <time>2012-04-07T14:29:07Z</time>
      </trkpt>
      <trkpt lat="59.9499933" lon="17.7086322">
        <ele>61.181</ele>
        <time>2012-04-07T14:29:11Z</time>
      </trkpt>
      <trkpt lat="59.9500342" lon="17.7084461">
        <ele>58.7777</ele>
        <time>2012-04-07T14:29:20Z</time>
      </trkpt>
      <trkpt lat="59.9500633" lon="17.7083224">
        <ele>54.9324</ele>
        <time>2012-04-07T14:29:27Z</time>
      </trkpt>
      <trkpt lat="59.9500684" lon="17.7083036">
        <ele>54.4518</ele>
        <time>2012-04-07T14:29:28Z</time>
      </trkpt>
      <trkpt lat="59.9500968" lon="17.7081861">
        <ele>52.0486</ele>
        <time>2012-04-07T14:29:34Z</time>
      </trkpt>
      <trkpt lat="59.9501522" lon="17.7081089">
        <ele>50.6066</ele>
        <time>2012-04-07T14:29:39Z</time>
      </trkpt>
      <trkpt lat="59.950172" lon="17.7080857">
        <ele>50.126</ele>
        <time>2012-04-07T14:29:41Z</time>
      </trkpt>
      <trkpt lat="59.9502498" lon="17.7081091">
        <ele>48.2034</ele>
        <time>2012-04-07T14:29:47Z</time>
      </trkpt>
      <trkpt lat="59.9502615" lon="17.7081194">
        <ele>47.7225</ele>
        <time>2012-04-07T14:29:48Z</time>
      </trkpt>
      <trkpt lat="59.9502801" lon="17.7081457">
        <ele>46.2806</ele>
        <time>2012-04-07T14:29:50Z</time>
      </trkpt>
      <trkpt lat="59.9503481" lon="17.7082538">
        <ele>43.3966</ele>
        <time>2012-04-07T14:29:57Z</time>
      </trkpt>
      <trkpt lat="59.9504034" lon="17.708297">
        <ele>41.9547</ele>
        <time>2012-04-07T14:30:02Z</time>
      </trkpt>
      <trkpt lat="59.9504616" lon="17.7083571">
        <ele>39.0707</ele>
        <time>2012-04-07T14:30:07Z</time>
      </trkpt>
      <trkpt lat="59.9505376" lon="17.7084097">
        <ele>36.6675</ele>
        <time>2012-04-07T14:30:13Z</time>
      </trkpt>
      <trkpt lat="59.9505536" lon="17.7084194">
        <ele>36.1868</ele>
        <time>2012-04-07T14:30:14Z</time>
      </trkpt>
      <trkpt lat="59.950573" lon="17.7084471">
        <ele>36.1868</ele>
        <time>2012-04-07T14:30:16Z</time>
      </trkpt>
      <trkpt lat="59.9506299" lon="17.7085054">
        <ele>34.7449</ele>
        <time>2012-04-07T14:30:21Z</time>
      </trkpt>
      <trkpt lat="59.9506401" lon="17.7085097">
        <ele>34.2642</ele>
        <time>2012-04-07T14:30:22Z</time>
      </trkpt>
      <trkpt lat="59.9506615" lon="17.708526">
        <ele>34.2642</ele>
        <time>2012-04-07T14:30:24Z</time>
      </trkpt>
      <trkpt lat="59.9507051" lon="17.708527">
        <ele>37.6287</ele>
        <time>2012-04-07T14:30:30Z</time>
      </trkpt>
      <trkpt lat="59.9507178" lon="17.7085197">
        <ele>39.5513</ele>
        <time>2012-04-07T14:30:36Z</time>
      </trkpt>
      <trkpt lat="59.9507164" lon="17.7085154">
        <ele>40.0321</ele>
        <time>2012-04-07T14:30:37Z</time>
      </trkpt>
      <trkpt lat="59.9506363" lon="17.7083892">
        <ele>40.0321</ele>
        <time>2012-04-07T14:30:42Z</time>
      </trkpt>
      <trkpt lat="59.9505942" lon="17.7083137">
        <ele>39.5513</ele>
        <time>2012-04-07T14:30:45Z</time>
      </trkpt>
      <trkpt lat="59.9504917" lon="17.7081576">
        <ele>39.5513</ele>
        <time>2012-04-07T14:30:53Z</time>
      </trkpt>
      <trkpt lat="59.9504485" lon="17.7080665">
        <ele>40.5128</ele>
        <time>2012-04-07T14:30:56Z</time>
      </trkpt>
      <trkpt lat="59.9503584" lon="17.7079521">
        <ele>42.4354</ele>
        <time>2012-04-07T14:31:02Z</time>
      </trkpt>
      <trkpt lat="59.9503384" lon="17.7079422">
        <ele>42.916</ele>
        <time>2012-04-07T14:31:03Z</time>
      </trkpt>
      <trkpt lat="59.9502506" lon="17.7079344">
        <ele>45.3192</ele>
        <time>2012-04-07T14:31:07Z</time>
      </trkpt>
      <trkpt lat="59.9501421" lon="17.7079902">
        <ele>46.7612</ele>
        <time>2012-04-07T14:31:12Z</time>
      </trkpt>
      <trkpt lat="59.9500704" lon="17.7081235">
        <ele>47.2418</ele>
        <time>2012-04-07T14:31:17Z</time>
      </trkpt>
      <trkpt lat="59.950027" lon="17.7082513">
        <ele>47.7225</ele>
        <time>2012-04-07T14:31:21Z</time>
      </trkpt>
      <trkpt lat="59.949986" lon="17.708396">
        <ele>47.2418</ele>
        <time>2012-04-07T14:31:25Z</time>
      </trkpt>
      <trkpt lat="59.949957" lon="17.7085699">
        <ele>47.7225</ele>
        <time>2012-04-07T14:31:30Z</time>
      </trkpt>
      <trkpt lat="59.9499234" lon="17.7087635">
        <ele>47.2418</ele>
        <time>2012-04-07T14:31:35Z</time>
      </trkpt>
      <trkpt lat="59.9498846" lon="17.7090466">
        <ele>50.6066</ele>
        <time>2012-04-07T14:31:41Z</time>
      </trkpt>
      <trkpt lat="59.9498339" lon="17.7092013">
        <ele>54.9324</ele>
        <time>2012-04-07T14:31:45Z</time>
      </trkpt>
      <trkpt lat="59.9498229" lon="17.7092513">
        <ele>55.4131</ele>
        <time>2012-04-07T14:31:47Z</time>
      </trkpt>
      <trkpt lat="59.9498157" lon="17.70936">
        <ele>57.3358</ele>
        <time>2012-04-07T14:31:54Z</time>
      </trkpt>
      <trkpt lat="59.9498424" lon="17.7093279">
        <ele>58.7777</ele>
        <time>2012-04-07T14:32:00Z</time>
      </trkpt>
      <trkpt lat="59.9498875" lon="17.709231">
        <ele>60.2197</ele>
        <time>2012-04-07T14:32:06Z</time>
      </trkpt>
      <trkpt lat="59.9499021" lon="17.7091968">
        <ele>60.7003</ele>
        <time>2012-04-07T14:32:08Z</time>
      </trkpt>
      <trkpt lat="59.9499249" lon="17.7091051">
        <ele>60.2197</ele>
        <time>2012-04-07T14:32:12Z</time>
      </trkpt>
      <trkpt lat="59.9499721" lon="17.7089891">
        <ele>61.181</ele>
        <time>2012-04-07T14:32:18Z</time>
      </trkpt>
      <trkpt lat="59.9500368" lon="17.7090424">
        <ele>61.6617</ele>
        <time>2012-04-07T14:32:24Z</time>
      </trkpt>
      <trkpt lat="59.9500698" lon="17.7091062">
        <ele>60.7003</ele>
        <time>2012-04-07T14:32:28Z</time>
      </trkpt>
      <trkpt lat="59.9500806" lon="17.7091134">
        <ele>60.7003</ele>
        <time>2012-04-07T14:32:29Z</time>
      </trkpt>
      <trkpt lat="59.9501067" lon="17.7091438">
        <ele>59.7391</ele>
        <time>2012-04-07T14:32:32Z</time>
      </trkpt>
      <trkpt lat="59.9501611" lon="17.7092184">
        <ele>57.8165</ele>
        <time>2012-04-07T14:32:38Z</time>
      </trkpt>
      <trkpt lat="59.9502052" lon="17.7092884">
        <ele>58.2971</ele>
        <time>2012-04-07T14:32:43Z</time>
      </trkpt>
      <trkpt lat="59.950217" lon="17.7093045">
        <ele>58.2971</ele>
        <time>2012-04-07T14:32:44Z</time>
      </trkpt>
      <trkpt lat="59.950293" lon="17.7093853">
        <ele>56.8551</ele>
        <time>2012-04-07T14:32:50Z</time>
      </trkpt>
      <trkpt lat="59.9503519" lon="17.7094848">
        <ele>55.4131</ele>
        <time>2012-04-07T14:32:56Z</time>
      </trkpt>
      <trkpt lat="59.9504049" lon="17.7094978">
        <ele>53.4905</ele>
        <time>2012-04-07T14:33:00Z</time>
      </trkpt>
      <trkpt lat="59.9504108" lon="17.7095215">
        <ele>52.0486</ele>
        <time>2012-04-07T14:33:02Z</time>
      </trkpt>
      <trkpt lat="59.9504405" lon="17.7096133">
        <ele>47.7225</ele>
        <time>2012-04-07T14:33:08Z</time>
      </trkpt>
      <trkpt lat="59.9504818" lon="17.7096569">
        <ele>45.7999</ele>
        <time>2012-04-07T14:33:13Z</time>
      </trkpt>
      <trkpt lat="59.9505371" lon="17.7097506">
        <ele>43.3966</ele>
        <time>2012-04-07T14:33:20Z</time>
      </trkpt>
      <trkpt lat="59.9506268" lon="17.7098287">
        <ele>40.9934</ele>
        <time>2012-04-07T14:33:27Z</time>
      </trkpt>
      <trkpt lat="59.9506714" lon="17.7098718">
        <ele>36.6675</ele>
        <time>2012-04-07T14:33:32Z</time>
      </trkpt>
      <trkpt lat="59.9507061" lon="17.7099374">
        <ele>33.3029</ele>
        <time>2012-04-07T14:33:37Z</time>
      </trkpt>
      <trkpt lat="59.9507429" lon="17.7099738">
        <ele>31.3801</ele>
        <time>2012-04-07T14:33:41Z</time>
      </trkpt>
      <trkpt lat="59.9508045" lon="17.7100023">
        <ele>34.2642</ele>
        <time>2012-04-07T14:33:46Z</time>
      </trkpt>
      <trkpt lat="59.9509129" lon="17.7099764">
        <ele>38.1094</ele>
        <time>2012-04-07T14:33:54Z</time>
      </trkpt>
      <trkpt lat="59.9509581" lon="17.7099773">
        <ele>38.5901</ele>
        <time>2012-04-07T14:33:58Z</time>
      </trkpt>
      <trkpt lat="59.9510597" lon="17.709965">
        <ele>42.4354</ele>
        <time>2012-04-07T14:34:06Z</time>
      </trkpt>
      <trkpt lat="59.9510988" lon="17.7099759">
        <ele>43.8773</ele>
        <time>2012-04-07T14:34:10Z</time>
      </trkpt>
      <trkpt lat="59.9511467" lon="17.7099909">
        <ele>46.2806</ele>
        <time>2012-04-07T14:34:14Z</time>
      </trkpt>
      <trkpt lat="59.9512788" lon="17.7099413">
        <ele>49.6453</ele>
        <time>2012-04-07T14:34:23Z</time>
      </trkpt>
      <trkpt lat="59.951328" lon="17.7099006">
        <ele>51.0872</ele>
        <time>2012-04-07T14:34:27Z</time>
      </trkpt>
      <trkpt lat="59.9513888" lon="17.7098806">
        <ele>50.126</ele>
        <time>2012-04-07T14:34:33Z</time>
      </trkpt>
      <trkpt lat="59.9514821" lon="17.7098157">
        <ele>48.684</ele>
        <time>2012-04-07T14:34:41Z</time>
      </trkpt>
      <trkpt lat="59.9515679" lon="17.7097792">
        <ele>50.126</ele>
        <time>2012-04-07T14:34:47Z</time>
      </trkpt>
      <trkpt lat="59.9516598" lon="17.7097538">
        <ele>51.0872</ele>
        <time>2012-04-07T14:34:54Z</time>
      </trkpt>
      <trkpt lat="59.9517199" lon="17.7097141">
        <ele>49.1646</ele>
        <time>2012-04-07T14:34:59Z</time>
      </trkpt>
      <trkpt lat="59.9518052" lon="17.7096445">
        <ele>46.2806</ele>
        <time>2012-04-07T14:35:06Z</time>
      </trkpt>
      <trkpt lat="59.9519103" lon="17.7096147">
        <ele>44.8386</ele>
        <time>2012-04-07T14:35:13Z</time>
      </trkpt>
      <trkpt lat="59.9519947" lon="17.7096484">
        <ele>46.2806</ele>
        <time>2012-04-07T14:35:19Z</time>
      </trkpt>
      <trkpt lat="59.9520815" lon="17.7096898">
        <ele>48.684</ele>
        <time>2012-04-07T14:35:24Z</time>
      </trkpt>
      <trkpt lat="59.9521825" lon="17.7097427">
        <ele>48.2034</ele>
        <time>2012-04-07T14:35:31Z</time>
      </trkpt>
      <trkpt lat="59.9522508" lon="17.709774">
        <ele>46.2806</ele>
        <time>2012-04-07T14:35:37Z</time>
      </trkpt>
      <trkpt lat="59.9523368" lon="17.7098168">
        <ele>44.8386</ele>
        <time>2012-04-07T14:35:43Z</time>
      </trkpt>
      <trkpt lat="59.9524166" lon="17.7099013">
        <ele>43.3966</ele>
        <time>2012-04-07T14:35:49Z</time>
      </trkpt>
      <trkpt lat="59.9525032" lon="17.7099723">
        <ele>42.916</ele>
        <time>2012-04-07T14:35:55Z</time>
      </trkpt>
      <trkpt lat="59.9525438" lon="17.7100172">
        <ele>41.474</ele>
        <time>2012-04-07T14:35:58Z</time>
      </trkpt>
      <trkpt lat="59.9526142" lon="17.7100985">
        <ele>39.0707</ele>
        <time>2012-04-07T14:36:04Z</time>
      </trkpt>
      <trkpt lat="59.9526476" lon="17.7101482">
        <ele>38.1094</ele>
        <time>2012-04-07T14:36:07Z</time>
      </trkpt>
      <trkpt lat="59.9527413" lon="17.7102515">
        <ele>36.1868</ele>
        <time>2012-04-07T14:36:14Z</time>
      </trkpt>
      <trkpt lat="59.9527516" lon="17.7102699">
        <ele>36.1868</ele>
        <time>2012-04-07T14:36:15Z</time>
      </trkpt>
      <trkpt lat="59.9527817" lon="17.7103204">
        <ele>34.7449</ele>
        <time>2012-04-07T14:36:18Z</time>
      </trkpt>
      <trkpt lat="59.9527979" lon="17.7103652">
        <ele>34.7449</ele>
        <time>2012-04-07T14:36:20Z</time>
      </trkpt>
      <trkpt lat="59.9528264" lon="17.7104223">
        <ele>35.7061</ele>
        <time>2012-04-07T14:36:22Z</time>
      </trkpt>
      <trkpt lat="59.9529092" lon="17.7106094">
        <ele>36.6675</ele>
        <time>2012-04-07T14:36:27Z</time>
      </trkpt>
      <trkpt lat="59.9529293" lon="17.710842">
        <ele>37.6287</ele>
        <time>2012-04-07T14:36:32Z</time>
      </trkpt>
      <trkpt lat="59.9528712" lon="17.7109675">
        <ele>39.0707</ele>
        <time>2012-04-07T14:36:36Z</time>
      </trkpt>
      <trkpt lat="59.9527523" lon="17.7110842">
        <ele>40.9934</ele>
        <time>2012-04-07T14:36:42Z</time>
      </trkpt>
      <trkpt lat="59.952641" lon="17.7112471">
        <ele>42.4354</ele>
        <time>2012-04-07T14:36:48Z</time>
      </trkpt>
      <trkpt lat="59.9525321" lon="17.7114723">
        <ele>43.3966</ele>
        <time>2012-04-07T14:36:55Z</time>
      </trkpt>
      <trkpt lat="59.9524228" lon="17.7116712">
        <ele>43.8773</ele>
        <time>2012-04-07T14:37:02Z</time>
      </trkpt>
      <trkpt lat="59.9523483" lon="17.7118262">
        <ele>43.3966</ele>
        <time>2012-04-07T14:37:07Z</time>
      </trkpt>
      <trkpt lat="59.9522975" lon="17.7120132">
        <ele>43.3966</ele>
        <time>2012-04-07T14:37:11Z</time>
      </trkpt>
      <trkpt lat="59.9522273" lon="17.7122261">
        <ele>43.3966</ele>
        <time>2012-04-07T14:37:17Z</time>
      </trkpt>
      <trkpt lat="59.9522032" lon="17.7124033">
        <ele>42.916</ele>
        <time>2012-04-07T14:37:21Z</time>
      </trkpt>
      <trkpt lat="59.9522068" lon="17.712603">
        <ele>42.4354</ele>
        <time>2012-04-07T14:37:26Z</time>
      </trkpt>
      <trkpt lat="59.9522421" lon="17.7127628">
        <ele>39.5513</ele>
        <time>2012-04-07T14:37:31Z</time>
      </trkpt>
      <trkpt lat="59.9523145" lon="17.7129656">
        <ele>40.0321</ele>
        <time>2012-04-07T14:37:37Z</time>
      </trkpt>
      <trkpt lat="59.9523873" lon="17.7131341">
        <ele>40.9934</ele>
        <time>2012-04-07T14:37:42Z</time>
      </trkpt>
      <trkpt lat="59.9524786" lon="17.7133285">
        <ele>41.474</ele>
        <time>2012-04-07T14:37:48Z</time>
      </trkpt>
      <trkpt lat="59.9525366" lon="17.71346">
        <ele>40.9934</ele>
        <time>2012-04-07T14:37:52Z</time>
      </trkpt>
      <trkpt lat="59.9526085" lon="17.7136214">
        <ele>40.0321</ele>
        <time>2012-04-07T14:37:57Z</time>
      </trkpt>
      <trkpt lat="59.9526985" lon="17.7137759">
        <ele>39.5513</ele>
        <time>2012-04-07T14:38:02Z</time>
      </trkpt>
      <trkpt lat="59.9528139" lon="17.7138843">
        <ele>40.5128</ele>
        <time>2012-04-07T14:38:07Z</time>
      </trkpt>
      <trkpt lat="59.9529563" lon="17.7139344">
        <ele>41.9547</ele>
        <time>2012-04-07T14:38:13Z</time>
      </trkpt>
      <trkpt lat="59.9530883" lon="17.7138222">
        <ele>42.916</ele>
        <time>2012-04-07T14:38:19Z</time>
      </trkpt>
      <trkpt lat="59.9532035" lon="17.713652">
        <ele>43.8773</ele>
        <time>2012-04-07T14:38:25Z</time>
      </trkpt>
      <trkpt lat="59.9533009" lon="17.7134868">
        <ele>45.3192</ele>
        <time>2012-04-07T14:38:31Z</time>
      </trkpt>
      <trkpt lat="59.9534141" lon="17.7133244">
        <ele>45.3192</ele>
        <time>2012-04-07T14:38:37Z</time>
      </trkpt>
      <trkpt lat="59.9535172" lon="17.7131611">
        <ele>44.8386</ele>
        <time>2012-04-07T14:38:42Z</time>
      </trkpt>
      <trkpt lat="59.9536106" lon="17.7130907">
        <ele>44.8386</ele>
        <time>2012-04-07T14:38:46Z</time>
      </trkpt>
      <trkpt lat="59.9537454" lon="17.7131513">
        <ele>46.7612</ele>
        <time>2012-04-07T14:38:51Z</time>
      </trkpt>
      <trkpt lat="59.9538288" lon="17.7133356">
        <ele>46.7612</ele>
        <time>2012-04-07T14:38:56Z</time>
      </trkpt>
      <trkpt lat="59.9538875" lon="17.7135717">
        <ele>46.7612</ele>
        <time>2012-04-07T14:39:01Z</time>
      </trkpt>
      <trkpt lat="59.9538749" lon="17.7138081">
        <ele>47.7225</ele>
        <time>2012-04-07T14:39:06Z</time>
      </trkpt>
      <trkpt lat="59.9538633" lon="17.7138474">
        <ele>48.2034</ele>
        <time>2012-04-07T14:39:07Z</time>
      </trkpt>
      <trkpt lat="59.9538587" lon="17.7141652">
        <ele>48.2034</ele>
        <time>2012-04-07T14:39:14Z</time>
      </trkpt>
      <trkpt lat="59.9538669" lon="17.7143986">
        <ele>48.2034</ele>
        <time>2012-04-07T14:39:19Z</time>
      </trkpt>
      <trkpt lat="59.9538945" lon="17.7146695">
        <ele>47.7225</ele>
        <time>2012-04-07T14:39:25Z</time>
      </trkpt>
      <trkpt lat="59.9539084" lon="17.714746">
        <ele>46.7612</ele>
        <time>2012-04-07T14:39:27Z</time>
      </trkpt>
      <trkpt lat="59.9539279" lon="17.7147923">
        <ele>47.7225</ele>
        <time>2012-04-07T14:39:30Z</time>
      </trkpt>
      <trkpt lat="59.9539291" lon="17.7148241">
        <ele>47.7225</ele>
        <time>2012-04-07T14:39:33Z</time>
      </trkpt>
      <trkpt lat="59.9539367" lon="17.714856">
        <ele>47.2418</ele>
        <time>2012-04-07T14:39:35Z</time>
      </trkpt>
      <trkpt lat="59.953989" lon="17.7148833">
        <ele>49.1646</ele>
        <time>2012-04-07T14:39:39Z</time>
      </trkpt>
      <trkpt lat="59.9540773" lon="17.7148824">
        <ele>49.1646</ele>
        <time>2012-04-07T14:39:46Z</time>
      </trkpt>
      <trkpt lat="59.9541508" lon="17.7148265">
        <ele>47.2418</ele>
        <time>2012-04-07T14:39:52Z</time>
      </trkpt>
      <trkpt lat="59.9542335" lon="17.7148027">
        <ele>46.2806</ele>
        <time>2012-04-07T14:39:58Z</time>
      </trkpt>
      <trkpt lat="59.9542529" lon="17.7147877">
        <ele>44.8386</ele>
        <time>2012-04-07T14:40:00Z</time>
      </trkpt>
      <trkpt lat="59.9543482" lon="17.7147908">
        <ele>43.8773</ele>
        <time>2012-04-07T14:40:07Z</time>
      </trkpt>
      <trkpt lat="59.9544516" lon="17.7147854">
        <ele>43.3966</ele>
        <time>2012-04-07T14:40:14Z</time>
      </trkpt>
      <trkpt lat="59.954529" lon="17.7147788">
        <ele>42.916</ele>
        <time>2012-04-07T14:40:20Z</time>
      </trkpt>
      <trkpt lat="59.9545594" lon="17.7147763">
        <ele>42.916</ele>
        <time>2012-04-07T14:40:22Z</time>
      </trkpt>
      <trkpt lat="59.9546633" lon="17.7147741">
        <ele>42.916</ele>
        <time>2012-04-07T14:40:29Z</time>
      </trkpt>
      <trkpt lat="59.9547601" lon="17.7147653">
        <ele>43.3966</ele>
        <time>2012-04-07T14:40:35Z</time>
      </trkpt>
      <trkpt lat="59.9547713" lon="17.7147664">
        <ele>43.8773</ele>
        <time>2012-04-07T14:40:36Z</time>
      </trkpt>
      <trkpt lat="59.9548288" lon="17.7146943">
        <ele>43.8773</ele>
        <time>2012-04-07T14:40:41Z</time>
      </trkpt>
      <trkpt lat="59.9548998" lon="17.7145121">
        <ele>43.3966</ele>
        <time>2012-04-07T14:40:49Z</time>
      </trkpt>
      <trkpt lat="59.9549828" lon="17.7143881">
        <ele>43.3966</ele>
        <time>2012-04-07T14:40:56Z</time>
      </trkpt>
      <trkpt lat="59.9550584" lon="17.7143291">
        <ele>44.358</ele>
        <time>2012-04-07T14:41:01Z</time>
      </trkpt>
      <trkpt lat="59.9551175" lon="17.7142024">
        <ele>45.7999</ele>
        <time>2012-04-07T14:41:07Z</time>
      </trkpt>
      <trkpt lat="59.9551981" lon="17.7140708">
        <ele>48.2034</ele>
        <time>2012-04-07T14:41:14Z</time>
      </trkpt>
      <trkpt lat="59.9552827" lon="17.7139309">
        <ele>47.7225</ele>
        <time>2012-04-07T14:41:22Z</time>
      </trkpt>
      <trkpt lat="59.9553647" lon="17.7139086">
        <ele>46.2806</ele>
        <time>2012-04-07T14:41:28Z</time>
      </trkpt>
      <trkpt lat="59.9554454" lon="17.7138909">
        <ele>44.8386</ele>
        <time>2012-04-07T14:41:34Z</time>
      </trkpt>
      <trkpt lat="59.955477" lon="17.7139343">
        <ele>44.358</ele>
        <time>2012-04-07T14:41:37Z</time>
      </trkpt>
      <trkpt lat="59.9555237" lon="17.7141024">
        <ele>43.8773</ele>
        <time>2012-04-07T14:41:45Z</time>
      </trkpt>
      <trkpt lat="59.9555433" lon="17.7142425">
        <ele>43.3966</ele>
        <time>2012-04-07T14:41:50Z</time>
      </trkpt>
      <trkpt lat="59.9555799" lon="17.7143743">
        <ele>42.916</ele>
        <time>2012-04-07T14:41:56Z</time>
      </trkpt>
      <trkpt lat="59.9556147" lon="17.7145022">
        <ele>41.9547</ele>
        <time>2012-04-07T14:42:02Z</time>
      </trkpt>
      <trkpt lat="59.9556558" lon="17.7146616">
        <ele>43.3966</ele>
        <time>2012-04-07T14:42:08Z</time>
      </trkpt>
      <trkpt lat="59.9556935" lon="17.7148479">
        <ele>41.474</ele>
        <time>2012-04-07T14:42:16Z</time>
      </trkpt>
      <trkpt lat="59.9557067" lon="17.7148999">
        <ele>41.9547</ele>
        <time>2012-04-07T14:42:18Z</time>
      </trkpt>
      <trkpt lat="59.955751" lon="17.7150254">
        <ele>40.9934</ele>
        <time>2012-04-07T14:42:22Z</time>
      </trkpt>
      <trkpt lat="59.955828" lon="17.7152409">
        <ele>40.9934</ele>
        <time>2012-04-07T14:42:27Z</time>
      </trkpt>
      <trkpt lat="59.9558344" lon="17.7152802">
        <ele>40.9934</ele>
        <time>2012-04-07T14:42:28Z</time>
      </trkpt>
      <trkpt lat="59.9559577" lon="17.7155979">
        <ele>40.0321</ele>
        <time>2012-04-07T14:42:35Z</time>
      </trkpt>
      <trkpt lat="59.9560466" lon="17.7158568">
        <ele>38.5901</ele>
        <time>2012-04-07T14:42:41Z</time>
      </trkpt>
      <trkpt lat="59.956153" lon="17.7161299">
        <ele>39.0707</ele>
        <time>2012-04-07T14:42:47Z</time>
      </trkpt>
      <trkpt lat="59.9562105" lon="17.7163353">
        <ele>39.5513</ele>
        <time>2012-04-07T14:42:51Z</time>
      </trkpt>
      <trkpt lat="59.9562778" lon="17.7164763">
        <ele>40.5128</ele>
        <time>2012-04-07T14:42:55Z</time>
      </trkpt>
      <trkpt lat="59.9563944" lon="17.7166344">
        <ele>41.474</ele>
        <time>2012-04-07T14:43:00Z</time>
      </trkpt>
      <trkpt lat="59.9565027" lon="17.716867">
        <ele>43.8773</ele>
        <time>2012-04-07T14:43:06Z</time>
      </trkpt>
      <trkpt lat="59.9566031" lon="17.7171035">
        <ele>46.7612</ele>
        <time>2012-04-07T14:43:12Z</time>
      </trkpt>
      <trkpt lat="59.9566585" lon="17.7172633">
        <ele>46.7612</ele>
        <time>2012-04-07T14:43:16Z</time>
      </trkpt>
      <trkpt lat="59.9567657" lon="17.7174995">
        <ele>48.2034</ele>
        <time>2012-04-07T14:43:23Z</time>
      </trkpt>
      <trkpt lat="59.9568191" lon="17.7176019">
        <ele>49.1646</ele>
        <time>2012-04-07T14:43:26Z</time>
      </trkpt>
      <trkpt lat="59.9569181" lon="17.7177984">
        <ele>49.1646</ele>
        <time>2012-04-07T14:43:32Z</time>
      </trkpt>
      <trkpt lat="59.9570055" lon="17.7179787">
        <ele>50.126</ele>
        <time>2012-04-07T14:43:37Z</time>
      </trkpt>
      <trkpt lat="59.957092" lon="17.718182">
        <ele>51.0872</ele>
        <time>2012-04-07T14:43:42Z</time>
      </trkpt>
      <trkpt lat="59.9571297" lon="17.7182548">
        <ele>51.5679</ele>
        <time>2012-04-07T14:43:44Z</time>
      </trkpt>
      <trkpt lat="59.9572316" lon="17.7184858">
        <ele>52.0486</ele>
        <time>2012-04-07T14:43:50Z</time>
      </trkpt>
      <trkpt lat="59.9572469" lon="17.7185267">
        <ele>52.0486</ele>
        <time>2012-04-07T14:43:51Z</time>
      </trkpt>
      <trkpt lat="59.9573698" lon="17.7188136">
        <ele>50.6066</ele>
        <time>2012-04-07T14:43:59Z</time>
      </trkpt>
      <trkpt lat="59.9574851" lon="17.7190821">
        <ele>49.1646</ele>
        <time>2012-04-07T14:44:06Z</time>
      </trkpt>
      <trkpt lat="59.9575882" lon="17.7192898">
        <ele>48.684</ele>
        <time>2012-04-07T14:44:12Z</time>
      </trkpt>
      <trkpt lat="59.9576614" lon="17.7194983">
        <ele>48.684</ele>
        <time>2012-04-07T14:44:17Z</time>
      </trkpt>
      <trkpt lat="59.9577483" lon="17.7197361">
        <ele>46.7612</ele>
        <time>2012-04-07T14:44:23Z</time>
      </trkpt>
      <trkpt lat="59.9578713" lon="17.7199175">
        <ele>47.7225</ele>
        <time>2012-04-07T14:44:29Z</time>
      </trkpt>
      <trkpt lat="59.9579473" lon="17.7200572">
        <ele>47.7225</ele>
        <time>2012-04-07T14:44:33Z</time>
      </trkpt>
      <trkpt lat="59.9580353" lon="17.7202737">
        <ele>49.1646</ele>
        <time>2012-04-07T14:44:39Z</time>
      </trkpt>
      <trkpt lat="59.9580639" lon="17.7203514">
        <ele>48.684</ele>
        <time>2012-04-07T14:44:41Z</time>
      </trkpt>
      <trkpt lat="59.9581425" lon="17.7205237">
        <ele>49.1646</ele>
        <time>2012-04-07T14:44:46Z</time>
      </trkpt>
      <trkpt lat="59.9581624" lon="17.7205573">
        <ele>49.6453</ele>
        <time>2012-04-07T14:44:47Z</time>
      </trkpt>
      <trkpt lat="59.9581997" lon="17.720626">
        <ele>51.0872</ele>
        <time>2012-04-07T14:44:49Z</time>
      </trkpt>
      <trkpt lat="59.9583333" lon="17.7208126">
        <ele>53.9712</ele>
        <time>2012-04-07T14:44:55Z</time>
      </trkpt>
      <trkpt lat="59.9584362" lon="17.7209784">
        <ele>55.4131</ele>
        <time>2012-04-07T14:45:00Z</time>
      </trkpt>
      <trkpt lat="59.9585594" lon="17.7211327">
        <ele>53.9712</ele>
        <time>2012-04-07T14:45:06Z</time>
      </trkpt>
      <trkpt lat="59.9586602" lon="17.7211676">
        <ele>52.5292</ele>
        <time>2012-04-07T14:45:11Z</time>
      </trkpt>
      <trkpt lat="59.9587751" lon="17.721231">
        <ele>51.5679</ele>
        <time>2012-04-07T14:45:16Z</time>
      </trkpt>
      <trkpt lat="59.9588155" lon="17.7212897">
        <ele>52.0486</ele>
        <time>2012-04-07T14:45:18Z</time>
      </trkpt>
      <trkpt lat="59.9588984" lon="17.721365">
        <ele>51.5679</ele>
        <time>2012-04-07T14:45:22Z</time>
      </trkpt>
      <trkpt lat="59.9590321" lon="17.7214767">
        <ele>51.5679</ele>
        <time>2012-04-07T14:45:28Z</time>
      </trkpt>
      <trkpt lat="59.9591791" lon="17.7215835">
        <ele>51.5679</ele>
        <time>2012-04-07T14:45:34Z</time>
      </trkpt>
      <trkpt lat="59.9592206" lon="17.7216099">
        <ele>51.0872</ele>
        <time>2012-04-07T14:45:36Z</time>
      </trkpt>
      <trkpt lat="59.9593124" lon="17.7215108">
        <ele>49.6453</ele>
        <time>2012-04-07T14:45:41Z</time>
      </trkpt>
      <trkpt lat="59.9593772" lon="17.7213017">
        <ele>47.7225</ele>
        <time>2012-04-07T14:45:46Z</time>
      </trkpt>
      <trkpt lat="59.9594236" lon="17.7211618">
        <ele>47.2418</ele>
        <time>2012-04-07T14:45:50Z</time>
      </trkpt>
      <trkpt lat="59.9594918" lon="17.7210161">
        <ele>46.2806</ele>
        <time>2012-04-07T14:45:54Z</time>
      </trkpt>
      <trkpt lat="59.959563" lon="17.7208292">
        <ele>45.3192</ele>
        <time>2012-04-07T14:45:59Z</time>
      </trkpt>
      <trkpt lat="59.9595927" lon="17.7207546">
        <ele>44.358</ele>
        <time>2012-04-07T14:46:01Z</time>
      </trkpt>
      <trkpt lat="59.9596682" lon="17.720445">
        <ele>42.916</ele>
        <time>2012-04-07T14:46:08Z</time>
      </trkpt>
      <trkpt lat="59.959695" lon="17.7202434">
        <ele>42.916</ele>
        <time>2012-04-07T14:46:12Z</time>
      </trkpt>
      <trkpt lat="59.9597219" lon="17.7199475">
        <ele>41.9547</ele>
        <time>2012-04-07T14:46:18Z</time>
      </trkpt>
      <trkpt lat="59.9597242" lon="17.7199129">
        <ele>41.9547</ele>
        <time>2012-04-07T14:46:19Z</time>
      </trkpt>
      <trkpt lat="59.9597625" lon="17.7196378">
        <ele>43.3966</ele>
        <time>2012-04-07T14:46:24Z</time>
      </trkpt>
      <trkpt lat="59.9598158" lon="17.7193617">
        <ele>40.5128</ele>
        <time>2012-04-07T14:46:29Z</time>
      </trkpt>
      <trkpt lat="59.9598819" lon="17.7191709">
        <ele>38.5901</ele>
        <time>2012-04-07T14:46:33Z</time>
      </trkpt>
      <trkpt lat="59.9599195" lon="17.7190515">
        <ele>37.6287</ele>
        <time>2012-04-07T14:46:36Z</time>
      </trkpt>
      <trkpt lat="59.9599915" lon="17.7188554">
        <ele>37.1481</ele>
        <time>2012-04-07T14:46:40Z</time>
      </trkpt>
      <trkpt lat="59.9600914" lon="17.7186184">
        <ele>38.1094</ele>
        <time>2012-04-07T14:46:45Z</time>
      </trkpt>
      <trkpt lat="59.960186" lon="17.7183823">
        <ele>37.6287</ele>
        <time>2012-04-07T14:46:50Z</time>
      </trkpt>
      <trkpt lat="59.9602371" lon="17.7182095">
        <ele>37.6287</ele>
        <time>2012-04-07T14:46:54Z</time>
      </trkpt>
      <trkpt lat="59.9603115" lon="17.7180504">
        <ele>38.5901</ele>
        <time>2012-04-07T14:46:58Z</time>
      </trkpt>
      <trkpt lat="59.9604395" lon="17.7180763">
        <ele>40.5128</ele>
        <time>2012-04-07T14:47:03Z</time>
      </trkpt>
      <trkpt lat="59.9605493" lon="17.718168">
        <ele>40.5128</ele>
        <time>2012-04-07T14:47:07Z</time>
      </trkpt>
      <trkpt lat="59.9606781" lon="17.7180413">
        <ele>42.916</ele>
        <time>2012-04-07T14:47:12Z</time>
      </trkpt>
      <trkpt lat="59.9608024" lon="17.7179812">
        <ele>45.3192</ele>
        <time>2012-04-07T14:47:16Z</time>
      </trkpt>
      <trkpt lat="59.9608978" lon="17.7180864">
        <ele>46.7612</ele>
        <time>2012-04-07T14:47:19Z</time>
      </trkpt>
      <trkpt lat="59.9610197" lon="17.7181998">
        <ele>47.2418</ele>
        <time>2012-04-07T14:47:23Z</time>
      </trkpt>
      <trkpt lat="59.9610951" lon="17.7181872">
        <ele>47.7225</ele>
        <time>2012-04-07T14:47:26Z</time>
      </trkpt>
      <trkpt lat="59.9611427" lon="17.7180662">
        <ele>49.6453</ele>
        <time>2012-04-07T14:47:29Z</time>
      </trkpt>
    </trkseg>
  </trk>
</gpx>